Time;durP1;ratioP1;P1;durP2;ratioP2;P2;SDS_P1;SDS_P2;PMS_P1;PMS_P2;Temp;Humidity;BMP_temperature;BMP_pressure;BME280_temperature;BME280_humidity;BME280_pressure;Samples;Min_cycle;Max_cycle;Signal;HPM_P1;HPM_P2
2021/04/20 00:00:25;;;;;;;37.78;24.27;;;;;;;-139.48;100.00;61774.03;5073604;28;20055;-71
2021/04/20 00:03:08;;;;;;;44.28;25.02;;;;;;;-139.48;100.00;61774.03;5059533;28;20047;-71
2021/04/20 00:05:52;;;;;;;40.40;22.60;;;;;;;-139.48;100.00;61774.03;5073499;28;20114;-70
2021/04/20 00:08:36;;;;;;;34.65;21.50;;;;;;;-139.48;100.00;61774.03;5073274;28;20074;-70
2021/04/20 00:11:20;;;;;;;37.83;22.52;;;;;;;-139.48;100.00;61774.03;5059297;28;20091;-71
2021/04/20 00:14:10;;;;;;;39.30;24.23;;;;;;;-139.48;100.00;61774.03;5073382;28;20082;-71
2021/04/20 00:16:54;;;;;;;40.33;22.50;;;;;;;-139.48;100.00;61774.03;5073177;28;20055;-71
2021/04/20 00:19:38;;;;;;;38.88;22.80;;;;;;;-139.48;100.00;61774.03;5073899;28;20507;-71
2021/04/20 00:22:22;;;;;;;38.40;21.77;;;;;;;-139.48;100.00;61774.03;5073200;28;20047;-71
2021/04/20 00:25:06;;;;;;;40.92;23.85;;;;;;;-139.48;100.00;61774.03;5072363;28;20578;-70
2021/04/20 00:27:50;;;;;;;39.08;23.55;;;;;;;-139.48;100.00;61774.03;5058935;28;20104;-70
2021/04/20 00:30:34;;;;;;;37.50;23.00;;;;;;;-139.48;100.00;61774.03;5074059;28;20079;-70
2021/04/20 00:33:19;;;;;;;39.35;21.63;;;;;;;-139.48;100.00;61774.03;5072694;28;20047;-70
2021/04/20 00:36:04;;;;;;;34.13;20.77;;;;;;;-139.48;100.00;61774.03;5073549;28;20051;-70
2021/04/20 00:38:48;;;;;;;36.83;22.15;;;;;;;-139.48;100.00;61774.03;5073824;28;20105;-70
2021/04/20 00:41:32;;;;;;;40.00;23.67;;;;;;;-139.48;100.00;61774.03;5072847;28;20060;-70
2021/04/20 00:44:16;;;;;;;38.33;22.23;;;;;;;-139.48;100.00;61774.03;5072805;28;20051;-71
2021/04/20 00:47:01;;;;;;;38.00;22.90;;;;;;;-139.48;100.00;61774.03;5072315;28;20463;-70
2021/04/20 00:49:45;;;;;;;36.90;22.70;;;;;;;-139.48;100.00;61774.03;5072734;28;20500;-70
2021/04/20 00:52:29;;;;;;;38.15;23.42;;;;;;;-139.48;100.00;61774.03;5073774;28;20503;-70
2021/04/20 00:55:13;;;;;;;35.92;22.55;;;;;;;-139.48;100.00;61774.03;5058497;28;20048;-70
2021/04/20 00:57:58;;;;;;;37.00;21.40;;;;;;;-139.48;100.00;61774.03;5072409;28;20051;-70
2021/04/20 01:00:42;;;;;;;36.65;22.23;;;;;;;-139.48;100.00;61774.03;5072405;28;20158;-70
2021/04/20 01:03:26;;;;;;;41.13;21.48;;;;;;;-139.48;100.00;61774.03;5073613;28;20132;-70
2021/04/20 01:06:10;;;;;;;36.78;22.15;;;;;;;-139.48;100.00;61774.03;5072489;28;20508;-70
2021/04/20 01:08:56;;;;;;;35.72;20.73;;;;;;;-139.48;100.00;61774.03;5058519;28;20602;-70
2021/04/20 01:11:41;;;;;;;39.10;23.00;;;;;;;-139.48;100.00;61774.03;5072507;28;20043;-70
2021/04/20 01:14:25;;;;;;;43.60;23.58;;;;;;;-139.48;100.00;61774.03;5072398;28;20067;-70
2021/04/20 01:17:08;;;;;;;40.08;24.20;;;;;;;-139.48;100.00;61774.03;5072232;28;20111;-70
2021/04/20 01:19:57;;;;;;;43.65;24.33;;;;;;;-139.48;100.00;61774.03;5058186;28;20070;-70
2021/04/20 01:22:45;;;;;;;40.78;23.67;;;;;;;-139.48;100.00;61774.03;5058471;28;20047;-70
2021/04/20 01:25:29;;;;;;;39.35;23.45;;;;;;;-139.48;100.00;61774.03;5072248;28;20056;-70
2021/04/20 01:28:13;;;;;;;37.95;21.35;;;;;;;-139.48;100.00;61774.03;5072019;28;20460;-70
2021/04/20 01:30:57;;;;;;;38.75;21.17;;;;;;;-139.48;100.00;61774.03;5072324;28;20079;-70
2021/04/20 01:33:43;;;;;;;41.53;23.13;;;;;;;-139.48;100.00;61774.03;5072182;28;20102;-70
2021/04/20 01:36:27;;;;;;;33.85;20.70;;;;;;;-139.48;100.00;61774.03;5074335;28;20074;-70
2021/04/20 01:39:13;;;;;;;37.83;22.83;;;;;;;-139.48;100.00;61774.03;5077005;28;20090;-70
2021/04/20 01:41:57;;;;;;;39.90;23.48;;;;;;;-139.48;100.00;61774.03;5061904;28;20046;-70
2021/04/20 01:44:41;;;;;;;36.97;21.98;;;;;;;-139.48;100.00;61774.03;5076272;28;20048;-70
2021/04/20 01:47:26;;;;;;;37.70;22.00;;;;;;;-139.48;100.00;61774.03;5112022;22;20413;-68
2021/04/20 01:50:11;;;;;;;35.50;21.13;;;;;;;-139.48;100.00;61774.03;5097095;28;20047;-68
2021/04/20 01:52:55;;;;;;;39.55;23.38;;;;;;;-139.48;100.00;61774.03;5082061;28;20404;-68
2021/04/20 01:55:39;;;;;;;36.95;22.90;;;;;;;-139.48;100.00;61774.03;5096509;28;20278;-67
2021/04/20 01:58:24;;;;;;;37.58;22.75;;;;;;;-139.48;100.00;61774.03;5095983;28;20093;-68
2021/04/20 02:01:16;;;;;;;36.28;22.20;;;;;;;-139.48;100.00;61774.03;5095962;28;20413;-68
2021/04/20 02:04:00;;;;;;;40.42;23.23;;;;;;;-139.48;100.00;61774.03;5095882;28;20089;-68
2021/04/20 02:06:44;;;;;;;45.00;25.02;;;;;;;-139.48;100.00;61774.03;5096024;28;20046;-68
2021/04/20 02:09:27;;;;;;;41.42;24.35;;;;;;;-139.48;100.00;61774.03;5096013;28;20139;-68
2021/04/20 02:12:12;;;;;;;39.67;22.63;;;;;;;-139.48;100.00;61774.03;5096978;28;20104;-68
2021/04/20 02:14:56;;;;;;;37.20;22.63;;;;;;;-139.48;100.00;61774.03;5095661;28;20093;-68
2021/04/20 02:17:41;;;;;;;39.55;23.38;;;;;;;-139.48;100.00;61774.03;5096166;28;20101;-68
2021/04/20 02:20:28;;;;;;;41.45;23.20;;;;;;;-139.48;100.00;61774.03;5095843;28;20070;-68
2021/04/20 02:23:14;;;;;;;41.80;23.17;;;;;;;-139.48;100.00;61774.03;5095741;28;20083;-67
2021/04/20 02:26:07;;;;;;;46.20;25.50;;;;;;;-139.48;100.00;61774.03;5096425;28;20055;-67
2021/04/20 02:28:51;;;;;;;45.53;27.15;;;;;;;-139.48;100.00;61774.03;5095651;28;20054;-68
2021/04/20 02:31:40;;;;;;;49.50;27.73;;;;;;;-139.48;100.00;61774.03;5095595;28;20089;-68
2021/04/20 02:34:25;;;;;;;47.50;26.45;;;;;;;-139.48;100.00;61774.03;5095580;28;20051;-67
2021/04/20 02:37:09;;;;;;;46.92;25.63;;;;;;;-139.48;100.00;61774.03;5095440;28;20101;-68
2021/04/20 02:39:53;;;;;;;83.00;33.03;;;;;;;-139.48;100.00;61774.03;5095395;28;20177;-68
2021/04/20 02:42:38;;;;;;;60.25;30.92;;;;;;;-139.48;100.00;61774.03;5109866;28;20100;-66
2021/04/20 02:45:25;;;;;;;55.92;29.58;;;;;;;-139.48;100.00;61774.03;5109493;28;20070;-68
2021/04/20 02:48:09;;;;;;;59.40;30.95;;;;;;;-139.48;100.00;61774.03;5094613;28;20469;-68
2021/04/20 02:50:54;;;;;;;55.90;30.05;;;;;;;-139.48;100.00;61774.03;5095093;28;20462;-67
2021/04/20 02:53:41;;;;;;;48.63;28.95;;;;;;;-139.48;100.00;61774.03;5095188;28;20442;-68
2021/04/20 02:56:25;;;;;;;57.58;30.30;;;;;;;-139.48;100.00;61774.03;5095050;28;20502;-68
2021/04/20 02:59:10;;;;;;;49.17;27.92;;;;;;;-139.48;100.00;61774.03;5080575;28;20058;-67
2021/04/20 03:01:56;;;;;;;47.20;27.33;;;;;;;-139.48;100.00;61774.03;5094838;28;20126;-68
2021/04/20 03:04:41;;;;;;;53.67;28.50;;;;;;;-139.48;100.00;61774.03;5094958;28;20055;-68
2021/04/20 03:07:25;;;;;;;50.25;27.13;;;;;;;-139.48;100.00;61774.03;5094850;28;20078;-67
2021/04/20 03:10:09;;;;;;;46.58;26.98;;;;;;;-139.48;100.00;61774.03;5094665;28;20405;-68
2021/04/20 03:12:54;;;;;;;43.70;25.95;;;;;;;-139.48;100.00;61774.03;5094889;28;20097;-68
2021/04/20 03:15:39;;;;;;;43.75;25.48;;;;;;;-139.48;100.00;61774.03;5094667;28;20455;-69
2021/04/20 03:18:23;;;;;;;48.05;27.63;;;;;;;-139.48;100.00;61774.03;5108796;28;20511;-68
2021/04/20 03:21:09;;;;;;;42.80;24.85;;;;;;;-139.48;100.00;61774.03;5094647;28;20114;-68
2021/04/20 03:23:55;;;;;;;43.75;25.77;;;;;;;-139.48;100.00;61774.03;5094576;28;20046;-68
2021/04/20 03:26:41;;;;;;;42.85;24.83;;;;;;;-139.48;100.00;61774.03;5080160;28;20051;-68
2021/04/20 03:29:25;;;;;;;42.45;25.98;;;;;;;-139.48;100.00;61774.03;5080131;28;20492;-68
2021/04/20 03:32:10;;;;;;;44.00;25.38;;;;;;;-139.48;100.00;61774.03;5094406;28;20519;-67
2021/04/20 03:34:57;;;;;;;47.63;26.63;;;;;;;-139.48;100.00;61774.03;5094111;28;20508;-68
2021/04/20 03:37:47;;;;;;;41.70;23.88;;;;;;;-139.48;100.00;61774.03;5095019;28;20048;-68
2021/04/20 03:40:34;;;;;;;42.03;24.00;;;;;;;-139.48;100.00;61774.03;5108646;28;20085;-68
2021/04/20 03:43:19;;;;;;;41.78;25.15;;;;;;;-139.48;100.00;61774.03;5094081;28;20121;-68
2021/04/20 03:46:07;;;;;;;44.28;26.08;;;;;;;-139.48;100.00;61774.03;5079819;28;20101;-68
2021/04/20 03:48:57;;;;;;;49.25;27.08;;;;;;;-139.48;100.00;61774.03;5094125;28;20101;-67
2021/04/20 03:51:43;;;;;;;52.60;28.70;;;;;;;-139.48;100.00;61774.03;5093736;28;20169;-68
2021/04/20 03:54:29;;;;;;;50.95;28.92;;;;;;;-139.48;100.00;61774.03;5093978;28;20097;-68
2021/04/20 03:57:14;;;;;;;48.13;27.38;;;;;;;-139.48;100.00;61774.03;5093634;28;20097;-68
2021/04/20 04:00:00;;;;;;;44.00;24.88;;;;;;;-139.48;100.00;61774.03;5092924;28;20047;-68
2021/04/20 04:02:48;;;;;;;39.17;23.75;;;;;;;-139.48;100.00;61774.03;5093813;28;20047;-68
2021/04/20 04:05:34;;;;;;;39.72;24.27;;;;;;;-139.48;100.00;61774.03;5093782;28;20093;-67
2021/04/20 04:08:19;;;;;;;41.40;23.45;;;;;;;-139.48;100.00;61774.03;5093699;28;20505;-66
2021/04/20 04:11:05;;;;;;;34.13;21.80;;;;;;;-139.48;100.00;61774.03;5093920;28;20035;-68
2021/04/20 04:13:49;;;;;;;35.20;22.65;;;;;;;-139.48;100.00;61774.03;5079265;28;20059;-68
2021/04/20 04:16:34;;;;;;;36.85;22.52;;;;;;;-139.48;100.00;61774.03;5093366;28;20089;-68
2021/04/20 04:19:20;;;;;;;40.00;23.30;;;;;;;-139.48;100.00;61774.03;5093275;28;20055;-68
2021/04/20 04:22:09;;;;;;;43.78;23.58;;;;;;;-139.48;100.00;61774.03;5093481;28;20051;-67
2021/04/20 04:24:55;;;;;;;59.60;23.20;;;;;;;-139.48;100.00;61774.03;5093413;28;20077;-68
2021/04/20 04:27:43;;;;;;;46.25;23.83;;;;;;;-139.48;100.00;61774.03;5093469;28;20166;-68
2021/04/20 04:30:29;;;;;;;45.67;24.58;;;;;;;-139.48;100.00;61774.03;5093053;28;20510;-68
2021/04/20 04:33:13;;;;;;;47.10;24.25;;;;;;;-139.48;100.00;61774.03;5093039;28;20098;-67
2021/04/20 04:35:57;;;;;;;38.55;22.58;;;;;;;-139.48;100.00;61774.03;5093132;28;20132;-68
2021/04/20 04:38:42;;;;;;;48.92;24.42;;;;;;;-139.48;100.00;61774.03;5093219;28;20101;-68
2021/04/20 04:41:27;;;;;;;61.92;24.40;;;;;;;-139.48;100.00;61774.03;5093121;28;20042;-68
2021/04/20 04:44:14;;;;;;;71.10;25.02;;;;;;;-139.48;100.00;61774.03;5093175;28;20047;-68
2021/04/20 04:46:59;;;;;;;42.35;24.20;;;;;;;-139.48;100.00;61774.03;5092665;28;20059;-68
2021/04/20 04:49:44;;;;;;;37.45;22.90;;;;;;;-139.48;100.00;61774.03;5092994;28;20051;-67
2021/04/20 04:52:29;;;;;;;63.05;25.17;;;;;;;-139.48;100.00;61774.03;5107258;28;20097;-68
2021/04/20 04:55:15;;;;;;;65.20;26.17;;;;;;;-139.48;100.00;61774.03;5092620;28;20135;-68
2021/04/20 04:57:59;;;;;;;79.97;25.45;;;;;;;-139.48;100.00;61774.03;5093508;28;20131;-66
2021/04/20 05:00:44;;;;;;;51.05;25.90;;;;;;;-139.48;100.00;61774.03;5093759;28;20069;-68
2021/04/20 05:03:28;;;;;;;73.45;26.05;;;;;;;-139.48;100.00;61774.03;5092774;28;20055;-67
2021/04/20 05:06:13;;;;;;;46.80;24.88;;;;;;;-139.48;100.00;61774.03;5092594;28;20047;-65
2021/04/20 05:08:57;;;;;;;40.70;23.65;;;;;;;-139.48;100.00;61774.03;5092747;28;20618;-67
2021/04/20 05:11:42;;;;;;;40.00;22.15;;;;;;;-139.48;100.00;61774.03;5093226;28;20516;-67
2021/04/20 05:14:26;;;;;;;40.03;22.42;;;;;;;-139.48;100.00;61774.03;5092342;28;20070;-67
2021/04/20 05:17:11;;;;;;;36.42;23.08;;;;;;;-139.48;100.00;61774.03;5093224;28;20055;-67
2021/04/20 05:19:55;;;;;;;35.03;21.88;;;;;;;-139.48;100.00;61774.03;5107124;28;20151;-67
2021/04/20 05:22:39;;;;;;;35.60;21.98;;;;;;;-139.48;100.00;61774.03;5092450;28;20135;-69
2021/04/20 05:25:24;;;;;;;33.22;21.27;;;;;;;-139.48;100.00;61774.03;5092715;28;20127;-70
2021/04/20 05:28:07;;;;;;;33.15;19.73;;;;;;;-139.48;100.00;61774.03;5092400;28;20568;-68
2021/04/20 05:30:55;;;;;;;34.67;22.05;;;;;;;-139.48;100.00;61774.03;5093261;28;20566;-67
2021/04/20 05:33:39;;;;;;;31.35;20.15;;;;;;;-139.48;100.00;61774.03;5093332;28;20093;-69
2021/04/20 05:36:24;;;;;;;31.63;19.60;;;;;;;-139.48;100.00;61774.03;5092505;28;20093;-67
2021/04/20 05:39:10;;;;;;;34.63;21.48;;;;;;;-139.48;100.00;61774.03;5093047;28;20516;-67
2021/04/20 05:41:54;;;;;;;32.80;20.70;;;;;;;-139.48;100.00;61774.03;5092006;28;20504;-68
2021/04/20 05:44:38;;;;;;;34.00;20.70;;;;;;;-139.48;100.00;61774.03;5092286;28;20588;-69
2021/04/20 05:47:25;;;;;;;29.45;19.65;;;;;;;-139.48;100.00;61774.03;5091880;28;20139;-66
2021/04/20 05:50:12;;;;;;;28.17;18.50;;;;;;;-139.48;100.00;61774.03;5092953;28;20047;-67
2021/04/20 05:52:58;;;;;;;33.83;17.73;;;;;;;-139.48;100.00;61774.03;5092227;28;20189;-67
2021/04/20 05:55:43;;;;;;;29.02;19.05;;;;;;;-139.48;100.00;61774.03;5092061;28;20047;-68
2021/04/20 05:58:26;;;;;;;29.23;18.13;;;;;;;-139.48;100.00;61774.03;5092212;28;20078;-69
2021/04/20 06:01:11;;;;;;;37.30;19.60;;;;;;;-139.48;100.00;61774.03;5091853;28;20051;-69
2021/04/20 06:03:55;;;;;;;26.55;17.92;;;;;;;-139.48;100.00;61774.03;5092197;28;20113;-68
2021/04/20 06:06:40;;;;;;;26.50;17.98;;;;;;;-139.48;100.00;61774.03;5077890;28;20086;-69
2021/04/20 06:09:24;;;;;;;35.67;16.88;;;;;;;-139.48;100.00;61774.03;5092085;28;20527;-69
2021/04/20 06:12:09;;;;;;;26.73;18.15;;;;;;;-139.48;100.00;61774.03;5093091;28;20101;-69
2021/04/20 06:14:53;;;;;;;27.17;17.15;;;;;;;-139.48;100.00;61774.03;5091853;28;20190;-69
2021/04/20 06:17:38;;;;;;;26.77;17.05;;;;;;;-139.48;100.00;61774.03;5091974;28;20404;-69
2021/04/20 06:20:23;;;;;;;28.23;17.55;;;;;;;-139.48;100.00;61774.03;5092981;28;20077;-69
2021/04/20 06:23:07;;;;;;;28.02;17.85;;;;;;;-139.48;100.00;61774.03;5093552;28;20169;-69
2021/04/20 06:25:56;;;;;;;34.15;18.10;;;;;;;-139.48;100.00;61774.03;5095744;28;20043;-69
2021/04/20 06:28:40;;;;;;;31.90;16.95;;;;;;;-139.48;100.00;61774.03;5081008;28;20123;-69
2021/04/20 06:31:24;;;;;;;34.00;17.13;;;;;;;-139.48;100.00;61774.03;5095856;28;20051;-68
2021/04/20 06:34:09;;;;;;;27.75;18.25;;;;;;;-139.48;100.00;61774.03;5095579;28;20090;-69
2021/04/20 06:36:53;;;;;;;37.70;18.80;;;;;;;-139.48;100.00;61774.03;5095764;28;20054;-69
2021/04/20 06:39:38;;;;;;;31.10;17.85;;;;;;;-139.48;100.00;61774.03;5095307;28;20113;-69
2021/04/20 06:42:23;;;;;;;27.70;18.63;;;;;;;-139.48;100.00;61774.03;5081069;28;20178;-69
2021/04/20 06:45:11;;;;;;;29.13;17.27;;;;;;;-139.48;100.00;61774.03;5095100;28;20046;-69
2021/04/20 06:48:01;;;;;;;29.23;17.92;;;;;;;-139.48;100.00;61774.03;5095876;28;20055;-69
2021/04/20 06:50:46;;;;;;;28.00;18.27;;;;;;;-139.48;100.00;61774.03;5094967;28;20096;-69
2021/04/20 06:53:38;;;;;;;37.47;18.02;;;;;;;-139.48;100.00;61774.03;5095156;28;20054;-69
2021/04/20 06:56:33;;;;;;;27.23;18.70;;;;;;;-139.48;100.00;61774.03;5094773;28;20051;-68
2021/04/20 06:59:27;;;;;;;25.88;17.67;;;;;;;-139.48;100.00;61774.03;5094797;28;20089;-68
2021/04/20 07:02:35;;;;;;;;;;;;;;;-139.48;100.00;61774.03;5095247;28;20089;-69
2021/04/20 07:05:43;;;;;;;27.70;17.65;;;;;;;-139.48;100.00;61774.03;5080649;28;20322;-68
2021/04/20 07:08:35;;;;;;;29.88;19.20;;;;;;;-139.48;100.00;61774.03;5080346;28;20077;-69
2021/04/20 07:11:19;;;;;;;29.35;18.58;;;;;;;-139.48;100.00;61774.03;5094846;28;20406;-68
2021/04/20 07:14:04;;;;;;;27.77;18.88;;;;;;;-139.48;100.00;61774.03;5094964;28;20051;-69
2021/04/20 07:16:56;;;;;;;29.23;19.77;;;;;;;-139.48;100.00;61774.03;5094698;28;20066;-68
2021/04/20 07:20:05;;;;;;;29.27;20.40;;;;;;;-139.48;100.00;61774.03;5094582;28;20051;-69
2021/04/20 07:22:55;;;;;;;28.85;19.60;;;;;;;-139.48;100.00;61774.03;5095418;28;20058;-68
2021/04/20 07:26:15;;;;;;;34.15;21.40;;;;;;;-139.48;100.00;61774.03;5095494;28;20046;-69
2021/04/20 07:29:11;;;;;;;32.58;21.92;;;;;;;-139.48;100.00;61774.03;5077952;28;20055;-69
2021/04/20 07:32:11;;;;;;;32.67;22.17;;;;;;;-139.48;100.00;61774.03;5095187;28;20039;-69
2021/04/20 07:35:05;;;;;;;34.40;23.20;;;;;;;-139.48;100.00;61774.03;5094105;28;20078;-69
2021/04/20 07:38:02;;;;;;;31.45;21.90;;;;;;;-139.48;100.00;61774.03;5094045;28;20470;-69
2021/04/20 07:40:57;;;;;;;35.22;22.75;;;;;;;-139.48;100.00;61774.03;5094299;28;20520;-69
2021/04/20 07:43:52;;;;;;;32.22;21.38;;;;;;;-139.48;100.00;61774.03;5093887;28;20066;-69
2021/04/20 07:46:45;;;;;;;34.85;22.88;;;;;;;-139.48;100.00;61774.03;5093744;28;20047;-69
2021/04/20 07:49:53;;;;;;;33.10;23.15;;;;;;;-139.48;100.00;61774.03;5094115;28;20086;-69
2021/04/20 07:53:00;;;;;;;35.90;24.13;;;;;;;-139.48;100.00;61774.03;5094095;28;20577;-68
2021/04/20 07:55:51;;;;;;;35.88;22.88;;;;;;;-139.48;100.00;61774.03;5093136;28;20131;-68
2021/04/20 07:58:41;;;;;;;33.25;21.83;;;;;;;-139.48;100.00;61774.03;5095164;28;20131;-68
2021/04/20 08:01:32;;;;;;;32.03;21.52;;;;;;;-139.48;100.00;61774.03;5079540;28;20538;-69
2021/04/20 08:04:41;;;;;;;34.35;22.23;;;;;;;-139.48;100.00;61774.03;5094800;28;20043;-69
2021/04/20 08:07:33;;;;;;;29.83;21.05;;;;;;;-139.48;100.00;61774.03;5093400;28;20056;-68
2021/04/20 08:10:17;;;;;;;36.10;23.20;;;;;;;-139.48;100.00;61774.03;5093695;28;20039;-69
2021/04/20 08:13:16;;;;;;;34.60;23.65;;;;;;;-139.48;100.00;61774.03;5093474;28;20462;-69
2021/04/20 08:16:23;;;;;;;36.17;25.40;;;;;;;-139.48;100.00;61774.03;5093731;28;20131;-69
2021/04/20 08:19:44;;;;;;;43.70;28.35;;;;;;;-139.48;100.00;61774.03;5094560;28;20498;-69
2021/04/20 08:22:28;;;;;;;42.38;28.15;;;;;;;-139.48;100.00;61774.03;5093148;28;20047;-69
2021/04/20 08:25:31;;;;;;;49.13;31.60;;;;;;;-139.48;100.00;61774.03;5093244;28;20567;-68
2021/04/20 08:28:32;;;;;;;45.05;29.02;;;;;;;-139.48;100.00;61774.03;5093639;28;20109;-69
2021/04/20 08:31:20;;;;;;;50.75;31.60;;;;;;;-139.48;100.00;61774.03;5093258;28;20039;-69
2021/04/20 08:34:29;;;;;;;41.55;28.83;;;;;;;-139.48;100.00;61774.03;5093340;28;20058;-69
2021/04/20 08:37:34;;;;;;;45.22;29.95;;;;;;;-139.48;100.00;61774.03;5093896;28;20043;-69
2021/04/20 08:40:24;;;;;;;45.70;30.50;;;;;;;-139.48;100.00;61774.03;5093268;28;20066;-69
2021/04/20 08:43:20;;;;;;;49.83;33.05;;;;;;;-139.48;100.00;61774.03;5093116;28;20043;-69
2021/04/20 08:46:11;;;;;;;44.88;30.58;;;;;;;-139.48;100.00;61774.03;5092215;28;20127;-69
2021/04/20 08:49:25;;;;;;;47.97;31.88;;;;;;;-139.48;100.00;61774.03;5093293;28;20130;-68
2021/04/20 08:52:15;;;;;;;47.25;32.25;;;;;;;-139.48;100.00;61774.03;5092933;28;20065;-68
2021/04/20 08:55:14;;;;;;;49.97;32.95;;;;;;;-139.48;100.00;61774.03;5093835;28;20054;-68
2021/04/20 08:58:14;;;;;;;43.47;31.08;;;;;;;-139.48;100.00;61774.03;5093011;28;20116;-68
2021/04/20 09:01:14;;;;;;;46.45;31.45;;;;;;;-139.48;100.00;61774.03;5093479;28;20046;-68
2021/04/20 09:04:17;;;;;;;53.53;34.30;;;;;;;-139.48;100.00;61774.03;5093019;28;20408;-68
2021/04/20 09:07:15;;;;;;;52.33;34.38;;;;;;;-139.48;100.00;61774.03;5093451;28;20473;-69
2021/04/20 09:10:09;;;;;;;53.53;35.38;;;;;;;-139.48;100.00;61774.03;5092740;28;20446;-69
2021/04/20 09:13:01;;;;;;;56.97;37.43;;;;;;;-139.48;100.00;61774.03;5078408;28;20085;-68
2021/04/20 09:16:06;;;;;;;53.08;36.22;;;;;;;-139.48;100.00;61774.03;5092420;28;20038;-68
2021/04/20 09:18:51;;;;;;;50.75;33.50;;;;;;;-139.48;100.00;61774.03;5092278;28;20054;-69
2021/04/20 09:22:14;;;;;;;49.10;33.95;;;;;;;-139.48;100.00;61774.03;5092455;28;20043;-69
2021/04/20 09:25:19;;;;;;;45.28;29.27;;;;;;;-139.48;100.00;61774.03;5093285;28;20085;-68
2021/04/20 09:28:08;;;;;;;44.08;30.58;;;;;;;-139.48;100.00;61774.03;5092142;28;20047;-68
2021/04/20 09:30:54;;;;;;;43.92;30.35;;;;;;;-139.48;100.00;61774.03;5106690;28;20504;-68
2021/04/20 09:33:52;;;;;;;42.92;28.30;;;;;;;-139.48;100.00;61774.03;5092384;28;20051;-68
2021/04/20 09:36:36;;;;;;;42.72;28.90;;;;;;;-139.48;100.00;61774.03;5092198;28;20458;-68
2021/04/20 09:39:24;;;;;;;44.60;29.25;;;;;;;-139.48;100.00;61774.03;5091949;28;20097;-68
2021/04/20 09:42:11;;;;;;;40.70;28.88;;;;;;;-139.48;100.00;61774.03;5092339;28;20078;-68
2021/04/20 09:45:15;;;;;;;35.88;26.55;;;;;;;-139.48;100.00;61774.03;5092095;28;20058;-68
2021/04/20 09:48:18;;;;;;;37.25;26.35;;;;;;;-139.48;100.00;61774.03;5091824;28;20047;-68
2021/04/20 09:51:07;;;;;;;35.85;25.67;;;;;;;-139.48;100.00;61774.03;5093500;28;20086;-68
2021/04/20 09:53:59;;;;;;;34.85;25.55;;;;;;;-139.48;100.00;61774.03;5092911;28;20435;-69
2021/04/20 09:56:52;;;;;;;38.08;27.40;;;;;;;-139.48;100.00;61774.03;5092887;28;20039;-68
2021/04/20 09:59:43;;;;;;;41.30;27.85;;;;;;;-139.48;100.00;61774.03;5081420;28;20483;-66
2021/04/20 10:02:36;;;;;;;36.78;26.85;;;;;;;-139.48;100.00;61774.03;5097151;28;20520;-68
2021/04/20 10:05:53;;;;;;;35.85;27.23;;;;;;;-139.48;100.00;61774.03;5095952;28;20055;-66
2021/04/20 10:08:55;;;;;;;34.70;27.42;;;;;;;-139.48;100.00;61774.03;5096112;28;20078;-66
2021/04/20 10:12:01;;;;;;;32.83;26.33;;;;;;;-139.48;100.00;61774.03;5095935;28;20043;-68
2021/04/20 10:15:09;;;;;;;34.50;27.65;;;;;;;-139.48;100.00;61774.03;5096642;28;20062;-68
2021/04/20 10:18:15;;;;;;;33.67;25.63;;;;;;;-139.48;100.00;61774.03;5095638;28;20468;-67
2021/04/20 10:21:08;;;;;;;22.58;20.10;;;;;;;-139.48;100.00;61774.03;5096919;28;20047;-68
2021/04/20 10:24:18;;;;;;;23.00;19.15;;;;;;;-139.48;100.00;61774.03;5095884;28;20054;-67
2021/04/20 10:27:14;;;;;;;33.78;26.05;;;;;;;-139.48;100.00;61774.03;5095805;28;20066;-68
2021/04/20 10:30:32;;;;;;;28.92;25.02;;;;;;;-139.48;100.00;61774.03;5095424;28;20093;-68
2021/04/20 10:33:20;;;;;;;28.02;24.95;;;;;;;-139.48;100.00;61774.03;5056107;28;20050;-68
2021/04/20 10:36:04;;;;;;;27.95;24.35;;;;;;;-139.48;100.00;61774.03;5095468;28;20051;-68
2021/04/20 10:38:51;;;;;;;28.17;24.83;;;;;;;-139.48;100.00;61774.03;5095294;28;20097;-68
2021/04/20 10:41:36;;;;;;;27.95;24.95;;;;;;;-139.48;100.00;61774.03;5095129;28;20051;-68
2021/04/20 10:44:23;;;;;;;28.55;25.33;;;;;;;-139.48;100.00;61774.03;5095424;28;20424;-68
2021/04/20 10:47:08;;;;;;;26.23;23.50;;;;;;;-139.48;100.00;61774.03;5109691;28;20345;-67
2021/04/20 10:49:54;;;;;;;24.77;22.17;;;;;;;-139.48;100.00;61774.03;5095147;28;20075;-68
2021/04/20 10:52:39;;;;;;;25.83;23.05;;;;;;;-139.48;100.00;61774.03;5081057;28;20516;-67
2021/04/20 10:55:28;;;;;;;23.95;21.25;;;;;;;-139.48;100.00;61774.03;5095238;28;20047;-68
2021/04/20 10:58:13;;;;;;;21.73;19.52;;;;;;;-139.48;100.00;61774.03;5095131;28;20405;-68
2021/04/20 11:00:57;;;;;;;24.42;21.95;;;;;;;-139.48;100.00;61774.03;5095310;28;20046;-68
2021/04/20 11:03:42;;;;;;;24.98;22.05;;;;;;;-139.48;100.00;61774.03;5095041;28;20051;-68
2021/04/20 11:06:26;;;;;;;24.85;22.20;;;;;;;-139.48;100.00;61774.03;5109241;28;20050;-67
2021/04/20 11:09:10;;;;;;;24.33;21.73;;;;;;;-139.48;100.00;61774.03;5094349;28;20077;-68
2021/04/20 11:11:54;;;;;;;24.38;21.88;;;;;;;-139.48;100.00;61774.03;5109314;28;20079;-68
2021/04/20 11:14:43;;;;;;;23.70;20.42;;;;;;;-139.48;100.00;61774.03;5094787;28;20096;-68
2021/04/20 11:17:42;;;;;;;24.02;21.52;;;;;;;-139.48;100.00;61774.03;5095730;28;20093;-67
2021/04/20 11:20:47;;;;;;;24.70;21.35;;;;;;;-139.48;100.00;61774.03;5095672;28;20416;-68
2021/04/20 11:23:33;;;;;;;23.13;20.55;;;;;;;-139.48;100.00;61774.03;5094955;28;20051;-68
2021/04/20 11:26:17;;;;;;;23.38;20.88;;;;;;;-139.48;100.00;61774.03;5094446;28;20096;-68
2021/04/20 11:29:07;;;;;;;23.20;20.00;;;;;;;-139.48;100.00;61774.03;5094568;28;20047;-68
2021/04/20 11:31:51;;;;;;;22.48;18.25;;;;;;;-139.48;100.00;61774.03;5094526;28;20050;-68
2021/04/20 11:34:35;;;;;;;21.50;19.30;;;;;;;-139.48;100.00;61774.03;5094370;28;20135;-68
2021/04/20 11:37:21;;;;;;;22.52;20.23;;;;;;;-139.48;100.00;61774.03;5108531;28;20047;-68
2021/04/20 11:40:08;;;;;;;20.33;18.13;;;;;;;-139.48;100.00;61774.03;5094084;28;20047;-68
2021/04/20 11:42:53;;;;;;;20.73;18.52;;;;;;;-139.48;100.00;61774.03;5094311;28;20051;-68
2021/04/20 11:45:39;;;;;;;25.90;19.85;;;;;;;-139.48;100.00;61774.03;5094180;28;20055;-68
2021/04/20 11:48:29;;;;;;;21.48;17.50;;;;;;;-139.48;100.00;61774.03;5094094;28;20094;-68
2021/04/20 11:51:12;;;;;;;20.60;17.35;;;;;;;-139.48;100.00;61774.03;5094138;28;20416;-68
2021/04/20 11:53:56;;;;;;;19.20;16.98;;;;;;;-139.48;100.00;61774.03;5094074;28;20480;-67
2021/04/20 11:56:41;;;;;;;19.98;17.48;;;;;;;-139.48;100.00;61774.03;5093697;28;20524;-68
2021/04/20 11:59:26;;;;;;;16.88;15.05;;;;;;;-139.48;100.00;61774.03;5094167;28;20051;-69
2021/04/20 12:02:10;;;;;;;19.10;17.13;;;;;;;-139.48;100.00;61774.03;5093815;28;20059;-69
2021/04/20 12:05:28;;;;;;;18.35;16.42;;;;;;;-139.48;100.00;61774.03;5094885;28;20075;-68
2021/04/20 12:08:21;;;;;;;18.13;15.90;;;;;;;-139.48;100.00;61774.03;5094510;28;20078;-68
2021/04/20 12:11:07;;;;;;;16.58;14.98;;;;;;;-139.48;100.00;61774.03;5093718;28;20185;-69
2021/04/20 12:13:51;;;;;;;15.70;14.15;;;;;;;-139.48;100.00;61774.03;5093657;28;20062;-68
2021/04/20 12:16:36;;;;;;;16.95;15.25;;;;;;;-139.48;100.00;61774.03;5094377;28;20073;-68
2021/04/20 12:19:22;;;;;;;18.42;16.05;;;;;;;-139.48;100.00;61774.03;5093158;28;20220;-68
2021/04/20 12:22:06;;;;;;;16.83;14.95;;;;;;;-139.48;100.00;61774.03;5093494;28;20046;-68
2021/04/20 12:24:51;;;;;;;16.65;14.95;;;;;;;-139.48;100.00;61774.03;5107597;28;20059;-68
2021/04/20 12:27:35;;;;;;;15.18;13.57;;;;;;;-139.48;100.00;61774.03;5093217;28;20542;-68
2021/04/20 12:30:21;;;;;;;16.67;14.93;;;;;;;-139.48;100.00;61774.03;5107878;28;20146;-67